createdAt,value
2022-11-28T00:01:43.394Z,93.37
2022-11-28T00:04:14.545Z,93.20
2022-11-28T00:06:46.117Z,93.21
2022-11-28T00:09:16.006Z,93.11
2022-11-28T00:11:46.423Z,93.04
2022-11-28T00:14:15.485Z,92.93
2022-11-28T00:16:44.497Z,93.08
2022-11-28T00:19:14.556Z,93.11
2022-11-28T00:21:43.068Z,92.81
2022-11-28T00:24:11.154Z,92.93
2022-11-28T00:26:42.490Z,93.04
2022-11-28T00:29:11.567Z,93.06
2022-11-28T00:31:43.969Z,92.88
2022-11-28T00:34:15.739Z,92.85
2022-11-28T00:36:45.769Z,92.38
2022-11-28T00:39:14.545Z,92.41
2022-11-28T00:41:43.085Z,92.43
2022-11-28T00:44:11.530Z,92.52
2022-11-28T00:46:39.568Z,92.64
2022-11-28T00:49:08.522Z,92.75
2022-11-28T00:51:38.271Z,92.57
2022-11-28T00:54:07.580Z,92.37
2022-11-28T00:56:38.135Z,92.52
2022-11-28T00:59:07.310Z,92.31
2022-11-28T01:01:40.007Z,92.12
2022-11-28T01:04:10.314Z,92.36
2022-11-28T01:06:42.433Z,92.47
2022-11-28T01:09:13.266Z,92.14
2022-11-28T01:11:43.233Z,92.04
2022-11-28T01:14:13.792Z,92.22
2022-11-28T01:16:42.158Z,92.13
2022-11-28T01:19:10.501Z,92.00
2022-11-28T01:21:40.105Z,92.09
2022-11-28T01:24:08.553Z,92.11
2022-11-28T01:26:38.624Z,92.16
2022-11-28T01:29:06.740Z,91.78
2022-11-28T01:31:34.884Z,92.34
2022-11-28T01:34:03.013Z,92.27
2022-11-28T01:36:31.610Z,92.17
2022-11-28T01:39:01.066Z,92.05
2022-11-28T01:41:29.894Z,92.01
2022-11-28T01:44:10.316Z,91.98
2022-11-28T01:46:38.448Z,92.00
2022-11-28T01:49:14.875Z,92.06
2022-11-28T01:51:47.314Z,91.67
2022-11-28T01:54:19.806Z,92.21
2022-11-28T01:56:52.251Z,92.35
2022-11-28T01:59:22.897Z,92.44
2022-11-28T02:01:51.062Z,92.47
2022-11-28T02:04:19.722Z,92.30
2022-11-28T02:06:47.768Z,90.99
2022-11-28T02:09:17.985Z,90.49
2022-11-28T02:12:08.263Z,89.34
2022-11-28T02:15:02.234Z,89.24
2022-11-28T02:17:45.335Z,90.82
2022-11-28T02:20:37.229Z,91.65
2022-11-28T02:23:16.227Z,91.75
2022-11-28T02:26:11.910Z,91.74
2022-11-28T02:29:08.633Z,92.08
2022-11-28T02:32:06.763Z,92.16
2022-11-28T02:34:47.121Z,92.48
2022-11-28T02:37:25.084Z,92.54
2022-11-28T02:40:02.116Z,92.34
2022-11-28T02:42:37.969Z,92.06
2022-11-28T02:45:11.523Z,91.99
2022-11-28T02:47:46.464Z,91.66
2022-11-28T02:50:20.173Z,89.74
2022-11-28T02:52:52.099Z,91.13
2022-11-28T02:55:20.742Z,91.72
2022-11-28T02:57:51.169Z,92.10
2022-11-28T03:00:26.530Z,92.47
2022-11-28T03:03:07.433Z,92.41
2022-11-28T03:05:44.303Z,92.10
2022-11-28T03:08:25.380Z,92.51
2022-11-28T03:11:00.818Z,92.46
2022-11-28T03:13:40.114Z,91.99
2022-11-28T03:16:19.061Z,92.02
2022-11-28T03:19:00.492Z,92.15
2022-11-28T03:21:37.396Z,92.29
2022-11-28T03:24:11.604Z,92.18
2022-11-28T03:26:47.724Z,91.67
2022-11-28T03:29:21.369Z,92.15
2022-11-28T03:31:55.047Z,92.02
2022-11-28T03:34:28.562Z,92.25
2022-11-28T03:37:02.691Z,92.14
2022-11-28T03:39:36.959Z,91.73
2022-11-28T03:42:11.564Z,89.52
2022-11-28T03:44:45.026Z,89.13
2022-11-28T03:47:13.241Z,89.47
2022-11-28T03:49:46.907Z,89.96
2022-11-28T03:52:20.756Z,90.32
2022-11-28T03:54:55.364Z,90.10
2022-11-28T03:57:26.210Z,89.66
2022-11-28T03:59:55.875Z,90.57
2022-11-28T04:02:32.044Z,90.42
2022-11-28T04:05:07.137Z,90.66
2022-11-28T04:07:41.280Z,91.95
2022-11-28T04:10:16.877Z,92.02
2022-11-28T04:12:56.227Z,92.63
2022-11-28T04:15:31.862Z,92.88
2022-11-28T04:18:07.411Z,92.86
2022-11-28T04:20:40.068Z,92.65
2022-11-28T04:23:13.163Z,92.87
2022-11-28T04:25:47.246Z,92.73
2022-11-28T04:28:20.715Z,93.09
2022-11-28T04:30:51.801Z,92.79
2022-11-28T04:33:23.364Z,92.85
2022-11-28T04:35:54.914Z,92.69
2022-11-28T04:38:25.677Z,92.79
2022-11-28T04:41:06.187Z,92.74
2022-11-28T04:43:36.851Z,92.59
2022-11-28T04:46:10.225Z,92.69
2022-11-28T04:48:38.593Z,92.76
2022-11-28T04:51:17.776Z,92.85
2022-11-28T04:53:51.272Z,93.02
2022-11-28T04:56:25.386Z,92.93
2022-11-28T04:58:53.436Z,92.87
2022-11-28T05:01:27.008Z,92.99
2022-11-28T05:03:56.019Z,93.03
2022-11-28T05:06:28.605Z,92.82
2022-11-28T05:08:56.967Z,93.07
2022-11-28T05:11:25.295Z,92.98
2022-11-28T05:13:53.775Z,92.91
2022-11-28T05:16:22.765Z,92.93
2022-11-28T05:18:50.923Z,92.99
2022-11-28T05:21:19.070Z,92.71
2022-11-28T05:23:49.040Z,93.11
2022-11-28T05:26:18.811Z,93.05
2022-11-28T05:28:48.511Z,91.29
2022-11-28T05:31:16.902Z,91.67
2022-11-28T05:33:44.917Z,92.20
2022-11-28T05:36:15.389Z,92.37
2022-11-28T05:38:44.780Z,92.47
2022-11-28T05:41:21.401Z,92.54
2022-11-28T05:43:49.440Z,92.37
2022-11-28T05:46:18.245Z,92.68
2022-11-28T05:48:46.384Z,92.54
2022-11-28T05:51:14.457Z,91.88
2022-11-28T05:53:42.725Z,91.34
2022-11-28T05:56:12.626Z,91.81
2022-11-28T05:58:42.113Z,91.06
2022-11-28T06:01:12.099Z,89.96
2022-11-28T06:03:40.761Z,91.13
2022-11-28T06:06:16.868Z,91.44
2022-11-28T06:08:45.940Z,90.34
2022-11-28T06:11:15.137Z,90.20
2022-11-28T06:13:46.429Z,89.37
2022-11-28T06:16:19.993Z,89.78
2022-11-28T06:18:48.736Z,89.88
2022-11-28T06:21:16.913Z,90.67
2022-11-28T06:23:45.049Z,92.03
2022-11-28T06:26:15.034Z,92.08
2022-11-28T06:28:44.989Z,90.27
2022-11-28T06:31:14.931Z,88.40
2022-11-28T06:33:43.698Z,88.13
2022-11-28T06:36:15.257Z,90.07
2022-11-28T06:38:43.861Z,89.57
2022-11-28T06:41:13.940Z,90.59
2022-11-28T06:43:42.133Z,90.84
2022-11-28T06:46:16.221Z,91.12
2022-11-28T06:48:45.555Z,91.43
2022-11-28T06:51:14.139Z,91.73
2022-11-28T06:53:42.479Z,91.99
2022-11-28T06:56:13.977Z,91.54
2022-11-28T06:58:42.632Z,91.47
2022-11-28T07:01:15.173Z,91.47
2022-11-28T07:03:43.979Z,91.30
2022-11-28T07:06:12.232Z,91.48
2022-11-28T07:08:41.121Z,91.41
2022-11-28T07:11:11.360Z,91.03
2022-11-28T07:13:39.712Z,91.25
2022-11-28T07:16:09.199Z,91.22
2022-11-28T07:18:38.750Z,91.26
2022-11-28T07:21:07.227Z,91.01
2022-11-28T07:23:38.447Z,90.98
2022-11-28T07:26:08.127Z,91.02
2022-11-28T07:28:36.258Z,90.90
2022-11-28T07:31:06.218Z,90.56
2022-11-28T07:33:35.801Z,90.55
2022-11-28T07:36:08.051Z,90.75
2022-11-28T07:38:36.325Z,90.32
2022-11-28T07:41:05.553Z,90.42
2022-11-28T07:43:33.642Z,90.21
2022-11-28T07:46:04.791Z,89.81
2022-11-28T07:48:33.103Z,89.89
2022-11-28T07:51:01.268Z,89.98
2022-11-28T07:53:30.725Z,90.42
2022-11-28T07:56:02.712Z,90.42
2022-11-28T07:58:30.914Z,90.21
2022-11-28T08:00:59.768Z,89.86
2022-11-28T08:03:27.901Z,89.93
2022-11-28T08:06:02.872Z,89.87
2022-11-28T08:08:32.837Z,89.59
2022-11-28T08:11:02.963Z,89.26
2022-11-28T08:13:31.595Z,89.16
2022-11-28T08:15:59.722Z,89.03
2022-11-28T08:18:27.918Z,88.32
2022-11-28T08:21:05.335Z,88.45
2022-11-28T08:23:37.095Z,88.81
2022-11-28T08:26:07.150Z,88.74
2022-11-28T08:28:35.666Z,88.71
2022-11-28T08:31:11.263Z,88.55
2022-11-28T08:33:40.132Z,87.57
2022-11-28T08:36:09.370Z,86.51
2022-11-28T08:38:40.326Z,86.57
2022-11-28T08:41:11.156Z,86.04
2022-11-28T08:43:39.869Z,86.46
2022-11-28T08:46:10.877Z,86.69
2022-11-28T08:48:41.960Z,86.86
2022-11-28T08:51:14.856Z,85.90
2022-11-28T08:53:48.663Z,87.15
2022-11-28T08:56:19.799Z,87.14
2022-11-28T08:58:48.003Z,86.53
2022-11-28T09:01:17.718Z,88.05
2022-11-28T09:03:48.373Z,87.40
2022-11-28T09:06:18.572Z,86.28
2022-11-28T09:08:48.548Z,86.84
2022-11-28T09:11:21.145Z,86.78
2022-11-28T09:13:49.876Z,85.57
2022-11-28T09:16:18.689Z,86.08
2022-11-28T09:18:46.988Z,86.69
2022-11-28T09:21:16.851Z,86.38
2022-11-28T09:23:48.058Z,86.14
2022-11-28T09:26:18.590Z,85.60
2022-11-28T09:28:47.484Z,83.59
2022-11-28T09:31:18.585Z,84.49
2022-11-28T09:33:48.295Z,83.43
2022-11-28T09:36:18.026Z,83.04
2022-11-28T09:38:46.239Z,82.30
2022-11-28T09:41:49.120Z,79.98
2022-11-28T09:44:22.951Z,79.17
2022-11-28T09:46:54.645Z,78.42
2022-11-28T09:49:40.662Z,78.84
2022-11-28T09:52:27.652Z,78.54
2022-11-28T09:55:04.962Z,79.86
2022-11-28T09:57:38.288Z,77.92
2022-11-28T10:00:12.236Z,79.03
2022-11-28T10:02:47.857Z,78.39
2022-11-28T10:05:25.666Z,78.50
2022-11-28T10:08:06.159Z,77.77
2022-11-28T10:10:41.720Z,78.00
2022-11-28T10:13:17.368Z,77.85
2022-11-28T10:15:56.927Z,77.84
2022-11-28T10:18:36.192Z,78.15
2022-11-28T10:21:09.886Z,79.60
2022-11-28T10:23:44.118Z,79.45
2022-11-28T10:26:22.110Z,78.69
2022-11-28T10:28:54.709Z,78.48
2022-11-28T10:31:32.057Z,76.72
2022-11-28T10:34:07.028Z,77.68
2022-11-28T10:36:47.457Z,77.73
2022-11-28T10:39:16.235Z,75.36
2022-11-28T10:42:11.475Z,73.23
2022-11-28T10:44:48.290Z,72.81
2022-11-28T10:47:24.232Z,72.80
2022-11-28T10:49:58.541Z,73.63
2022-11-28T10:52:36.804Z,74.34
2022-11-28T10:55:23.894Z,73.88
2022-11-28T10:58:01.748Z,74.75
2022-11-28T11:00:31.994Z,76.22
2022-11-28T11:03:03.467Z,75.11
2022-11-28T11:05:33.889Z,74.64
2022-11-28T11:08:06.130Z,74.13
2022-11-28T11:10:40.657Z,75.14
2022-11-28T11:13:16.160Z,76.29
2022-11-28T11:15:48.797Z,75.23
2022-11-28T11:18:25.744Z,76.03
2022-11-28T11:21:08.852Z,75.92
2022-11-28T11:23:38.585Z,76.55
2022-11-28T11:26:10.323Z,76.91
2022-11-28T11:28:44.396Z,75.48
2022-11-28T11:31:27.090Z,75.42
2022-11-28T11:34:04.241Z,74.62
2022-11-28T11:36:34.235Z,74.69
2022-11-28T11:39:17.924Z,75.70
2022-11-28T11:41:47.926Z,75.92
2022-11-28T11:44:34.271Z,76.73
2022-11-28T11:47:06.144Z,76.37
2022-11-28T11:49:37.208Z,75.54
2022-11-28T11:52:07.965Z,75.25
2022-11-28T11:54:38.228Z,75.23
2022-11-28T11:57:31.985Z,74.93
2022-11-28T12:00:05.783Z,74.51
2022-11-28T12:02:47.967Z,74.32
2022-11-28T12:05:20.357Z,74.34
2022-11-28T12:07:58.602Z,74.06
2022-11-28T12:10:30.963Z,73.39
2022-11-28T12:12:59.194Z,74.80
2022-11-28T12:15:41.178Z,74.65
2022-11-28T12:18:22.944Z,75.57
2022-11-28T12:21:13.247Z,77.33
2022-11-28T12:24:09.924Z,77.44
2022-11-28T12:26:46.039Z,77.26
2022-11-28T12:29:37.881Z,76.87
2022-11-28T12:32:30.504Z,76.72
2022-11-28T12:35:30.702Z,76.40
2022-11-28T12:38:11.764Z,76.23
2022-11-28T12:40:55.405Z,76.88
2022-11-28T12:43:46.944Z,78.03
2022-11-28T12:46:23.076Z,78.26
2022-11-28T12:49:09.114Z,79.56
2022-11-28T12:51:56.425Z,79.73
2022-11-28T12:54:55.044Z,79.48
2022-11-28T12:57:33.476Z,78.69
2022-11-28T13:00:09.217Z,79.42
2022-11-28T13:02:49.024Z,79.72
2022-11-28T13:05:32.933Z,79.67
2022-11-28T13:08:36.199Z,80.48
2022-11-28T13:11:16.414Z,80.19
2022-11-28T13:13:52.711Z,80.20
2022-11-28T13:16:47.482Z,79.86
2022-11-28T13:19:33.958Z,79.66
2022-11-28T13:22:09.393Z,79.57
2022-11-28T13:24:44.462Z,79.90
2022-11-28T13:27:24.933Z,79.67
2022-11-28T13:30:10.323Z,79.99
2022-11-28T13:32:46.823Z,80.13
2022-11-28T13:35:17.374Z,80.15
2022-11-28T13:40:44.506Z,81.31
2022-11-28T13:43:19.116Z,81.38
2022-11-28T13:45:50.074Z,81.83
2022-11-28T13:49:15.442Z,82.00
2022-11-28T13:51:47.983Z,82.38
2022-11-28T13:54:48.877Z,82.45
2022-11-28T13:57:25.486Z,82.24
2022-11-28T14:00:03.763Z,82.30
2022-11-28T14:02:50.833Z,82.06
2022-11-28T14:05:30.100Z,82.08
2022-11-28T14:07:59.205Z,81.65
2022-11-28T14:10:51.046Z,81.68
2022-11-28T14:13:46.179Z,81.88
2022-11-28T14:16:25.968Z,82.19
2022-11-28T14:19:12.052Z,82.20
2022-11-28T14:21:53.472Z,82.35
2022-11-28T14:24:34.979Z,82.24
2022-11-28T14:27:06.435Z,82.00
2022-11-28T14:29:40.425Z,82.80
2022-11-28T14:32:31.019Z,83.05
2022-11-28T14:35:01.783Z,83.12
2022-11-28T14:37:48.896Z,83.13
2022-11-28T14:41:06.543Z,83.49
2022-11-28T14:43:37.555Z,84.05
2022-11-28T14:46:35.134Z,83.60
2022-11-28T14:49:23.426Z,84.08
2022-11-28T14:52:42.888Z,84.18
2022-11-28T14:55:58.821Z,84.16
2022-11-28T14:58:27.224Z,84.45
2022-11-28T15:00:59.957Z,84.07
2022-11-28T15:03:40.218Z,84.42
2022-11-28T15:06:13.917Z,85.02
2022-11-28T15:09:17.141Z,85.58
2022-11-28T15:12:20.160Z,85.75
2022-11-28T15:15:19.149Z,85.91
2022-11-28T15:17:54.709Z,85.83
2022-11-28T15:20:30.875Z,85.98
2022-11-28T15:23:01.075Z,86.26
2022-11-28T15:25:35.601Z,86.63
2022-11-28T15:28:23.784Z,86.19
2022-11-28T15:30:54.099Z,86.17
2022-11-28T15:33:24.226Z,85.10
2022-11-28T15:36:01.224Z,84.35
2022-11-28T15:38:32.357Z,84.55
2022-11-28T15:41:01.946Z,84.38
2022-11-28T15:43:32.435Z,83.47
2022-11-28T15:46:03.752Z,84.71
2022-11-28T15:48:39.851Z,85.70
2022-11-28T15:51:28.270Z,86.66
2022-11-28T15:54:00.708Z,86.93
2022-11-28T15:56:40.745Z,87.26
2022-11-28T15:59:14.996Z,87.41
2022-11-28T16:01:43.745Z,87.30
2022-11-28T16:04:16.063Z,87.28
2022-11-28T16:06:51.608Z,87.57
2022-11-28T16:09:35.164Z,87.65
2022-11-28T16:12:11.666Z,87.99
2022-11-28T16:14:45.917Z,88.36
2022-11-28T16:17:24.358Z,88.42
2022-11-28T16:23:49.442Z,86.97
2022-11-28T16:26:25.712Z,86.24
2022-11-28T16:29:01.661Z,87.35
2022-11-28T16:31:30.823Z,88.35
2022-11-28T16:33:59.930Z,88.87
2022-11-28T16:36:35.615Z,89.21
2022-11-28T16:39:20.272Z,89.62
2022-11-28T16:45:48.358Z,89.80
2022-11-28T16:48:21.784Z,89.82
2022-11-28T16:51:24.862Z,89.90
2022-11-28T16:53:55.149Z,90.14
2022-11-28T16:56:27.918Z,89.88
2022-11-28T16:59:12.878Z,90.33
2022-11-28T17:01:44.479Z,90.31
2022-11-28T17:04:25.490Z,90.41
2022-11-28T17:06:55.601Z,90.63
2022-11-28T17:09:27.765Z,90.69
2022-11-28T17:12:08.682Z,90.39
2022-11-28T17:14:39.394Z,90.73
2022-11-28T17:17:14.348Z,90.88
2022-11-28T17:19:42.977Z,90.96
2022-11-28T17:22:15.810Z,90.96
2022-11-28T17:24:44.742Z,91.00
2022-11-28T17:27:15.541Z,90.63
2022-11-28T17:29:51.285Z,91.01
2022-11-28T17:32:21.498Z,90.68
2022-11-28T17:34:55.005Z,90.75
2022-11-28T17:37:24.335Z,90.67
2022-11-28T17:40:11.484Z,90.65
2022-11-28T17:42:49.023Z,90.51
2022-11-28T17:45:20.072Z,90.37
2022-11-28T17:47:50.303Z,90.47
2022-11-28T17:50:21.279Z,90.17
2022-11-28T17:52:52.346Z,90.42
2022-11-28T17:55:20.781Z,90.23
2022-11-28T17:57:56.075Z,90.08
2022-11-28T18:00:31.683Z,89.77
2022-11-28T18:03:01.220Z,90.00
2022-11-28T18:05:38.076Z,89.93
2022-11-28T18:08:17.924Z,89.92
2022-11-28T18:11:03.463Z,89.98
2022-11-28T18:13:36.451Z,89.97
2022-11-28T18:16:12.387Z,89.81
2022-11-28T18:18:45.442Z,89.79
2022-11-28T18:21:14.571Z,89.96
2022-11-28T18:23:47.792Z,89.87
2022-11-28T18:26:30.204Z,90.23
2022-11-28T18:29:04.612Z,90.13
2022-11-28T18:31:35.582Z,90.02
2022-11-28T18:34:21.211Z,89.81
2022-11-28T18:37:02.513Z,89.97
2022-11-28T18:39:36.794Z,89.15
2022-11-28T18:42:08.067Z,88.97
2022-11-28T18:44:38.257Z,89.16
2022-11-28T18:47:10.158Z,89.07
2022-11-28T18:49:38.373Z,86.36
2022-11-28T18:52:06.818Z,86.04
2022-11-28T18:54:35.246Z,85.98
2022-11-28T18:57:04.737Z,86.28
2022-11-28T18:59:33.474Z,86.53
2022-11-28T19:02:02.940Z,87.48
2022-11-28T19:04:32.177Z,87.73
2022-11-28T19:07:01.705Z,87.20
2022-11-28T19:09:31.623Z,86.99
2022-11-28T19:11:59.927Z,87.73
2022-11-28T19:14:29.048Z,88.76
2022-11-28T19:16:57.664Z,89.76
2022-11-28T19:19:27.751Z,89.37
2022-11-28T19:21:57.353Z,89.74
2022-11-28T19:24:26.768Z,90.28
2022-11-28T19:26:56.282Z,90.81
2022-11-28T19:29:26.642Z,90.94
2022-11-28T19:31:55.736Z,91.05
2022-11-28T19:34:26.013Z,91.08
2022-11-28T19:36:57.240Z,90.70
2022-11-28T19:39:28.142Z,89.57
2022-11-28T19:41:57.347Z,90.36
2022-11-28T19:44:29.165Z,90.85
2022-11-28T19:46:57.642Z,90.99
2022-11-28T19:49:26.217Z,91.10
2022-11-28T19:51:56.119Z,91.28
2022-11-28T19:54:24.980Z,90.96
2022-11-28T19:57:01.445Z,91.13
2022-11-28T19:59:39.826Z,88.68
2022-11-28T20:02:08.376Z,89.17
2022-11-28T20:04:39.469Z,90.01
2022-11-28T20:07:09.438Z,90.55
2022-11-28T20:09:38.240Z,91.08
2022-11-28T20:12:07.629Z,90.98
2022-11-28T20:14:36.608Z,91.06
2022-11-28T20:17:06.277Z,90.52
2022-11-28T20:19:41.643Z,90.37
2022-11-28T20:22:15.537Z,90.75
2022-11-28T20:24:49.946Z,90.91
2022-11-28T20:28:27.950Z,91.34
2022-11-28T20:30:59.056Z,90.03
2022-11-28T20:33:30.404Z,90.12
2022-11-28T20:36:10.399Z,90.80
2022-11-28T20:38:41.137Z,91.10
2022-11-28T20:41:34.714Z,91.39
2022-11-28T20:44:03.166Z,91.45
2022-11-28T20:46:49.601Z,91.63
2022-11-28T20:49:18.422Z,91.56
2022-11-28T20:51:47.394Z,91.45
2022-11-28T20:54:17.486Z,91.50
2022-11-28T20:59:36.220Z,91.46
2022-11-28T21:02:05.520Z,91.53
2022-11-28T21:04:35.765Z,91.52
2022-11-28T21:07:05.043Z,91.20
2022-11-28T21:09:34.850Z,89.16
2022-11-28T21:12:03.334Z,87.32
2022-11-28T21:14:33.528Z,86.96
2022-11-28T21:17:01.701Z,87.99
2022-11-28T21:19:29.856Z,88.27
2022-11-28T21:21:58.140Z,88.06
2022-11-28T21:24:26.421Z,88.02
2022-11-28T21:26:56.271Z,88.21
2022-11-28T21:29:25.290Z,88.43
2022-11-28T21:31:53.934Z,88.67
2022-11-28T21:34:22.749Z,88.94
2022-11-28T21:36:51.781Z,88.71
2022-11-28T21:39:22.991Z,88.61
2022-11-28T21:41:52.105Z,88.62
2022-11-28T21:44:22.150Z,88.56
2022-11-28T21:46:50.924Z,88.31
2022-11-28T21:49:19.195Z,88.09
2022-11-28T21:51:47.444Z,88.26
2022-11-28T21:54:15.850Z,88.09
2022-11-28T21:56:46.681Z,87.31
2022-11-28T21:59:15.506Z,87.97
2022-11-28T22:01:45.574Z,87.96
2022-11-28T22:04:14.411Z,87.94
2022-11-28T22:06:54.532Z,88.12
2022-11-28T22:09:23.166Z,88.17
2022-11-28T22:11:51.851Z,88.44
2022-11-28T22:14:20.766Z,88.50
2022-11-28T22:16:50.355Z,87.78
2022-11-28T22:19:19.416Z,87.82
2022-11-28T22:21:52.198Z,88.10
2022-11-28T22:24:24.495Z,88.24
2022-11-28T22:26:53.556Z,88.14
2022-11-28T22:29:21.850Z,87.55
2022-11-28T22:31:52.029Z,85.94
2022-11-28T22:34:20.716Z,85.35
2022-11-28T22:36:49.108Z,85.27
2022-11-28T22:39:17.662Z,86.17
2022-11-28T22:41:46.658Z,86.75
2022-11-28T22:44:15.212Z,86.43
2022-11-28T22:46:43.501Z,86.80
2022-11-28T22:49:13.491Z,87.06
2022-11-28T22:51:42.451Z,87.51
2022-11-28T22:54:13.621Z,87.59
2022-11-28T22:56:43.490Z,87.86
2022-11-28T22:59:13.546Z,88.29
2022-11-28T23:01:43.596Z,88.85
2022-11-28T23:04:13.878Z,88.51
2022-11-28T23:06:42.862Z,88.73
2022-11-28T23:09:14.600Z,89.54
2022-11-28T23:11:42.683Z,89.38
2022-11-28T23:14:13.888Z,89.70
2022-11-28T23:16:44.731Z,90.13
2022-11-28T23:19:16.231Z,91.17
2022-11-28T23:21:47.705Z,90.87
2022-11-28T23:24:17.799Z,91.28
2022-11-28T23:26:48.107Z,91.15
2022-11-28T23:29:16.778Z,91.21
2022-11-28T23:31:46.971Z,91.86
2022-11-28T23:34:17.072Z,91.56
2022-11-28T23:36:47.292Z,92.01
2022-11-28T23:39:17.770Z,92.03
2022-11-28T23:41:47.008Z,92.18
2022-11-28T23:44:17.059Z,92.49
2022-11-28T23:46:45.534Z,92.19
2022-11-28T23:49:14.071Z,92.06
2022-11-28T23:51:43.881Z,92.00
2022-11-28T23:54:12.603Z,92.21
2022-11-28T23:56:42.161Z,92.42
2022-11-28T23:59:12.039Z,92.45
